LIPX/VRN METAR and TAF weather

Enter ICAO airport designator
Station Type Date Time Source
LIPX METAR 2020/08/14 16:50 UTC NOAA

LIPX 141650Z 01003KT 290V090 CAVOK 29/14 Q1010


Station Type Date Time Source
LIPX Decoded METAR 2020/08/14 16:50 UTC NOAA

Verona / Villafranca, Italy (LIPX) 45-23N 010-52E 68M
Aug 14, 2020 - 12:50 PM EDT / 2020.08.14 1650 UTC
Wind: from the N (010 degrees) at 3 MPH (3 KT) (direction variable):0
Visibility: greater than 7 mile(s):0
Temperature: 84 F (29 C)
Dew Point: 57 F (14 C)
Relative Humidity: 39%
Pressure (altimeter): 29.83 in. Hg (1010 hPa)
ob: LIPX 141650Z 01003KT 290V090 CAVOK 29/14 Q1010
cycle: 17

Station Type Date Time Source
LIPX TAF 2014/04/22 15:24 UTC NOAA

TAF LIPX 221400Z 2215/2324 VRB05KT 9999 SCT030 SCT070
TEMPO 2215/2218 SCT025CB SCT080 PROB30
TEMPO 2215/2218 TS

Example: see airport list